Time;durP1;ratioP1;P1;durP2;ratioP2;P2;SDS_P1;SDS_P2;PMS_P1;PMS_P2;Temp;Humidity;BMP_temperature;BMP_pressure;BME280_temperature;BME280_humidity;BME280_pressure;Samples;Min_cycle;Max_cycle;Signal;HPM_P1;HPM_P2
2022/06/15 00:02:08;;;;;;;3.95;2.20;;;;;;;21.77;54.14;95005.97;5095375;28;20577;-75
2022/06/15 00:04:36;;;;;;;5.35;2.25;;;;;;;21.78;53.25;95010.97;5082419;28;20201;-79
2022/06/15 00:07:03;;;;;;;5.75;2.60;;;;;;;21.78;53.58;95010.97;5085371;28;20198;-76
2022/06/15 00:09:30;;;;;;;2.95;2.50;;;;;;;21.76;53.85;95012.16;5087282;28;20596;-75
2022/06/15 00:11:57;;;;;;;2.20;2.00;;;;;;;21.74;53.75;95011.56;5083434;28;20190;-79
2022/06/15 00:14:27;;;;;;;2.85;2.03;;;;;;;21.73;54.19;95013.38;5087923;28;20210;-83
2022/06/15 00:16:54;;;;;;;4.32;2.25;;;;;;;21.74;54.09;95008.97;5091344;28;20228;-76
2022/06/15 00:19:21;;;;;;;3.83;2.20;;;;;;;21.74;54.07;95008.97;5090559;28;20201;-76
2022/06/15 00:21:49;;;;;;;3.38;1.95;;;;;;;21.72;54.16;95000.56;5081165;28;20179;-85
2022/06/15 00:24:16;;;;;;;4.00;3.35;;;;;;;21.68;54.25;94997.53;5071353;28;20657;-82
2022/06/15 00:26:44;;;;;;;2.75;2.25;;;;;;;21.69;54.29;94990.53;5071715;28;20195;-86
2022/06/15 00:29:11;;;;;;;4.30;2.20;;;;;;;21.58;54.28;94978.09;5087124;28;20196;-84
2022/06/15 00:31:38;;;;;;;2.40;2.20;;;;;;;21.66;54.44;94993.53;5091832;28;20196;-84
2022/06/15 00:34:05;;;;;;;3.65;2.10;;;;;;;21.65;54.46;94992.72;5070809;28;20222;-83
2022/06/15 00:36:32;;;;;;;3.88;2.60;;;;;;;21.55;54.41;94984.53;5071147;28;20190;-86
2022/06/15 00:39:02;;;;;;;2.85;2.30;;;;;;;21.58;54.42;94988.50;5070053;28;20198;-85
2022/06/15 00:41:32;;;;;;;5.28;2.10;;;;;;;21.62;54.53;94993.13;5070594;28;20248;-88
2022/06/15 00:44:01;;;;;;;2.40;2.20;;;;;;;21.62;54.21;94997.53;5070689;28;20190;-85
2022/06/15 00:46:32;;;;;;;3.28;1.92;;;;;;;21.60;54.12;94999.53;5071277;28;20189;-78
2022/06/15 00:49:03;;;;;;;2.20;2.00;;;;;;;21.53;54.13;94981.28;5090925;28;20288;-80
2022/06/15 00:51:30;;;;;;;4.40;2.23;;;;;;;21.57;54.19;94990.31;5091209;28;20190;-80
2022/06/15 00:54:01;;;;;;;2.22;2.10;;;;;;;21.56;53.55;94991.31;5089937;28;20217;-87
2022/06/15 00:56:30;;;;;;;2.38;2.20;;;;;;;21.54;53.75;95001.09;5091254;28;20201;-90
2022/06/15 00:59:00;;;;;;;3.37;2.13;;;;;;;21.51;53.80;95004.94;5091804;28;20236;-86
2022/06/15 01:01:27;;;;;;;2.10;2.00;;;;;;;21.48;53.86;95007.13;5091204;28;20216;-80
2022/06/15 01:03:58;;;;;;;3.13;2.20;;;;;;;21.46;53.72;95006.50;5090313;28;20201;-84
2022/06/15 01:06:38;;;;;;;2.50;2.30;;;;;;;21.45;53.75;95007.50;5089608;28;20209;-81
2022/06/15 01:09:14;;;;;;;2.53;2.33;;;;;;;21.41;53.85;95012.28;5094433;28;20204;-86
2022/06/15 01:11:54;;;;;;;2.80;2.30;;;;;;;21.40;53.87;95008.09;5090793;28;20224;-84
2022/06/15 01:15:01;;;;;;;2.38;2.28;;;;;;;21.35;53.84;95004.50;5090304;28;20758;-84
2022/06/15 01:17:44;;;;;;;3.22;2.03;;;;;;;21.35;53.97;95007.09;5090369;28;20226;-82
2022/06/15 01:20:22;;;;;;;2.65;2.15;;;;;;;21.34;53.78;95006.28;5090762;28;20196;-86
2022/06/15 01:23:30;;;;;;;3.90;2.27;;;;;;;21.32;53.57;95010.88;5088742;28;20311;-84
2022/06/15 01:26:18;;;;;;;2.50;2.30;;;;;;;21.31;53.76;95011.84;5008035;28;20269;-84
2022/06/15 01:28:47;;;;;;;4.25;2.22;;;;;;;21.29;53.79;95013.84;4991654;28;20279;-80
2022/06/15 01:31:25;;;;;;;3.05;2.58;;;;;;;21.26;53.83;95007.22;5008473;28;20702;-76
2022/06/15 01:34:03;;;;;;;3.33;2.40;;;;;;;21.26;53.33;95017.63;4988744;28;20217;-88
2022/06/15 01:36:40;;;;;;;2.92;2.20;;;;;;;21.22;53.33;95010.44;4998270;28;20188;-86
2022/06/15 01:39:16;;;;;;;2.65;2.25;;;;;;;21.17;53.39;95005.00;5008342;28;20202;-87
2022/06/15 01:41:52;;;;;;;2.77;1.97;;;;;;;21.19;53.17;95008.22;5008179;28;20187;-80
2022/06/15 01:44:24;;;;;;;2.47;2.27;;;;;;;21.20;53.00;95015.84;5008009;28;20195;-87
2022/06/15 01:46:54;;;;;;;4.18;2.50;;;;;;;21.18;53.28;95017.81;5008267;28;20191;-87
2022/06/15 01:49:25;;;;;;;3.67;2.40;;;;;;;21.10;53.29;95011.97;5008287;28;20646;-84
2022/06/15 01:51:54;;;;;;;3.50;2.20;;;;;;;21.15;53.22;95022.59;5008157;28;21130;-86
2022/06/15 01:54:27;;;;;;;3.53;2.17;;;;;;;21.09;53.08;95018.19;5008060;28;20224;-85
2022/06/15 01:56:57;;;;;;;3.15;2.20;;;;;;;21.11;52.73;95019.56;5008307;28;20199;-87
2022/06/15 01:59:31;;;;;;;2.47;1.98;;;;;;;21.09;52.86;95026.00;5007987;28;20625;-88
2022/06/15 02:02:07;;;;;;;3.22;2.10;;;;;;;21.04;52.56;95011.75;5038003;28;20194;-82
2022/06/15 02:04:48;;;;;;;2.35;2.13;;;;;;;20.96;52.48;95008.53;5079474;28;20189;-77
2022/06/15 02:07:26;;;;;;;4.07;1.95;;;;;;;21.02;52.38;95020.75;5070237;28;20573;-79
2022/06/15 02:09:59;;;;;;;3.57;2.20;;;;;;;20.99;52.27;95023.75;5070414;28;20197;-79
2022/06/15 02:12:34;;;;;;;2.38;2.17;;;;;;;20.97;52.21;95020.53;5069849;28;20198;-81
2022/06/15 02:15:05;;;;;;;2.43;2.23;;;;;;;20.94;52.23;95023.50;5070049;28;20209;-81
2022/06/15 02:17:38;;;;;;;2.58;2.30;;;;;;;20.92;52.39;95025.50;5069487;28;20221;-86
2022/06/15 02:20:10;;;;;;;4.65;1.98;;;;;;;20.90;52.40;95024.91;5070137;28;20187;-82
2022/06/15 02:22:40;;;;;;;3.42;1.92;;;;;;;20.86;52.33;95018.50;5069729;28;20269;-82
2022/06/15 02:25:12;;;;;;;2.40;2.00;;;;;;;20.86;52.21;95023.69;5070114;28;20566;-84
2022/06/15 02:27:42;;;;;;;1.93;1.83;;;;;;;20.84;52.54;95023.06;5069553;28;20685;-87
2022/06/15 02:30:13;;;;;;;4.13;2.17;;;;;;;20.82;52.39;95025.06;5069414;28;20194;-85
2022/06/15 02:32:42;;;;;;;3.83;2.20;;;;;;;20.80;52.51;95018.25;5070819;28;20679;-84
2022/06/15 02:35:10;;;;;;;2.38;2.20;;;;;;;20.74;52.56;95007.84;5075928;28;20210;-81
2022/06/15 02:37:38;;;;;;;4.70;2.30;;;;;;;20.77;52.56;95020.47;5083693;28;20573;-81
2022/06/15 02:40:05;;;;;;;3.87;2.20;;;;;;;20.75;52.63;95012.03;5084461;28;20197;-81
2022/06/15 02:42:34;;;;;;;2.73;2.30;;;;;;;20.68;52.67;95003.38;5080986;28;20681;-84
2022/06/15 02:45:06;;;;;;;3.73;2.43;;;;;;;20.74;52.80;95016.44;5100668;28;20201;-81
2022/06/15 02:47:35;;;;;;;6.22;2.00;;;;;;;20.71;52.67;95008.22;5105860;28;20189;-85
2022/06/15 02:50:05;;;;;;;4.50;2.10;;;;;;;20.71;52.71;95019.41;5099983;28;20186;-87
2022/06/15 02:52:37;;;;;;;2.75;2.55;;;;;;;20.68;52.43;95011.19;5094276;28;20196;-86
2022/06/15 02:55:05;;;;;;;3.40;2.30;;;;;;;20.70;52.58;95014.41;5094133;28;20221;-87
2022/06/15 02:57:43;;;;;;;5.05;2.05;;;;;;;20.68;52.46;95014.63;5094022;28;20229;-87
2022/06/15 03:00:12;;;;;;;3.92;2.10;;;;;;;20.69;52.53;95011.00;5093811;28;20190;-85
2022/06/15 03:02:39;;;;;;;2.97;2.13;;;;;;;20.67;52.27;95005.19;5079478;28;20190;-85
2022/06/15 03:05:08;;;;;;;2.30;2.10;;;;;;;20.68;52.45;95008.59;5073360;28;20720;-82
2022/06/15 03:07:35;;;;;;;4.13;2.70;;;;;;;20.68;52.48;95013.78;5085973;28;20201;-77
2022/06/15 03:10:02;;;;;;;2.87;2.10;;;;;;;20.68;52.50;95013.78;5087527;28;20693;-79
2022/06/15 03:12:29;;;;;;;3.20;2.40;;;;;;;20.69;52.53;95012.81;5085202;28;20677;-82
2022/06/15 03:14:56;;;;;;;3.17;2.40;;;;;;;20.69;52.59;95000.63;5093183;28;20206;-74
2022/06/15 03:17:23;;;;;;;3.93;2.00;;;;;;;20.70;52.40;95006.63;5100166;28;20230;-80
2022/06/15 03:19:50;;;;;;;2.73;2.30;;;;;;;20.72;52.71;95004.59;5094150;28;20192;-82
2022/06/15 03:22:18;;;;;;;3.03;2.43;;;;;;;20.72;52.57;95010.59;5075518;28;20179;-84
2022/06/15 03:24:45;;;;;;;4.73;2.43;;;;;;;20.70;52.47;94999.63;5072647;28;21008;-79
2022/06/15 03:27:12;;;;;;;2.03;1.87;;;;;;;20.77;52.62;95010.84;5072993;28;20187;-83
2022/06/15 03:29:38;;;;;;;3.77;1.93;;;;;;;20.78;52.62;95012.47;5080386;28;20572;-88
2022/06/15 03:32:06;;;;;;;2.40;2.20;;;;;;;20.80;52.55;95015.66;5083044;28;20179;-85
2022/06/15 03:34:33;;;;;;;6.20;2.57;;;;;;;20.82;52.65;95019.88;5072412;28;20218;-79
2022/06/15 03:36:59;;;;;;;2.40;2.20;;;;;;;20.84;52.83;95021.28;5080200;28;20193;-82
2022/06/15 03:39:28;;;;;;;2.67;2.30;;;;;;;20.89;52.91;95023.28;5079180;28;20189;-74
2022/06/15 03:41:55;;;;;;;2.93;2.40;;;;;;;20.91;52.79;95029.13;5077326;28;20190;-80
2022/06/15 03:44:21;;;;;;;3.17;2.30;;;;;;;20.92;52.68;95020.31;5086190;28;20185;-81
2022/06/15 03:46:48;;;;;;;2.53;2.33;;;;;;;20.95;52.44;95017.34;5093285;28;20181;-78
2022/06/15 03:49:15;;;;;;;3.23;2.30;;;;;;;20.99;52.33;95029.75;5094023;28;20193;-81
2022/06/15 03:51:42;;;;;;;3.03;2.20;;;;;;;21.01;52.34;95027.75;5080846;28;20196;-82
2022/06/15 03:54:09;;;;;;;4.23;2.27;;;;;;;21.06;52.35;95027.16;5076565;28;20768;-81
2022/06/15 03:56:46;;;;;;;4.05;2.28;;;;;;;21.11;51.94;95031.78;5072148;28;20225;-82
2022/06/15 03:59:13;;;;;;;2.70;2.50;;;;;;;21.12;52.07;95034.22;5080029;28;20189;-82
2022/06/15 04:01:40;;;;;;;4.13;2.17;;;;;;;21.17;51.94;95033.63;5091821;28;20192;-84
2022/06/15 04:04:07;;;;;;;2.78;2.15;;;;;;;21.23;51.92;95038.03;5092216;28;20310;-82
2022/06/15 04:06:34;;;;;;;2.67;2.28;;;;;;;21.28;51.87;95033.03;5092088;28;20193;-85
2022/06/15 04:09:00;;;;;;;5.03;2.58;;;;;;;21.29;51.98;95029.47;5092250;28;20186;-82
2022/06/15 04:14:13;;;;;;;2.47;2.22;;;;;;;21.34;51.63;95021.91;5091785;28;20211;-78
2022/06/15 04:16:39;;;;;;;2.25;1.98;;;;;;;21.43;51.36;95036.34;5091832;28;20244;-82
2022/06/15 04:19:08;;;;;;;4.03;2.13;;;;;;;21.47;50.87;95028.94;5077029;28;20178;-87
2022/06/15 04:21:35;;;;;;;3.45;2.20;;;;;;;21.52;51.25;95035.16;5076370;28;20202;-80
2022/06/15 04:24:02;;;;;;;2.08;1.98;;;;;;;21.56;51.30;95032.16;5071388;28;20190;-81
2022/06/15 04:26:30;;;;;;;2.92;2.45;;;;;;;21.60;51.02;95034.19;5071249;28;20764;-85
2022/06/15 04:28:57;;;;;;;10.25;2.58;;;;;;;21.64;50.90;95038.00;5071306;28;20619;-89
2022/06/15 04:31:26;;;;;;;3.28;2.20;;;;;;;21.68;50.80;95033.19;5073193;28;20186;-86
2022/06/15 04:33:52;;;;;;;5.95;2.38;;;;;;;21.73;51.32;95033.41;5089902;28;20213;-75
2022/06/15 04:36:19;;;;;;;3.80;2.22;;;;;;;21.95;64.54;95042.63;5090567;28;20217;-76
2022/06/15 04:38:46;;;;;;;4.45;2.40;;;;;;;22.18;64.88;95044.06;5090431;28;20676;-78
2022/06/15 04:41:13;;;;;;;5.43;2.50;;;;;;;22.43;64.08;95036.44;5090824;28;20197;-80
2022/06/15 04:43:40;;;;;;;10.05;2.72;;;;;;;22.65;63.71;95035.19;5091889;28;20216;-82
2022/06/15 04:46:07;;;;;;;9.13;2.50;;;;;;;22.86;63.37;95039.34;5090413;28;20280;-83
2022/06/15 04:48:35;;;;;;;6.57;2.63;;;;;;;23.08;61.80;95039.09;5090629;28;20186;-82
2022/06/15 04:51:11;;;;;;;5.53;2.40;;;;;;;23.24;60.97;95034.22;5090726;28;20186;-80
2022/06/15 04:53:38;;;;;;;8.45;2.67;;;;;;;23.41;59.77;95041.59;5090930;28;20185;-81
2022/06/15 04:56:05;;;;;;;11.75;3.10;;;;;;;23.52;59.08;95040.91;5090113;28;20205;-85
2022/06/15 04:58:32;;;;;;;8.45;2.63;;;;;;;23.69;58.48;95042.03;5085962;28;20186;-81
2022/06/15 05:01:00;;;;;;;4.30;2.22;;;;;;;23.81;57.92;95044.00;5070393;28;20255;-81
2022/06/15 05:03:26;;;;;;;8.18;4.40;;;;;;;23.92;59.16;95051.97;5070382;28;20198;-80
2022/06/15 05:05:57;;;;;;;12.10;4.10;;;;;;;23.98;59.60;95043.25;5070957;28;20185;-76
2022/06/15 05:08:25;;;;;;;7.85;4.65;;;;;;;24.16;59.22;95046.94;5072244;28;20198;-79
2022/06/15 05:10:52;;;;;;;10.75;5.05;;;;;;;24.34;59.71;95059.28;5087965;28;20206;-81
2022/06/15 05:13:18;;;;;;;9.23;4.10;;;;;;;24.56;59.69;95046.63;5089319;28;20194;-79
2022/06/15 05:15:45;;;;;;;6.63;3.60;;;;;;;25.00;58.97;95063.91;5089831;28;20221;-78
2022/06/15 05:18:12;;;;;;;6.82;3.20;;;;;;;25.37;57.81;95056.84;5088988;28;20230;-80
2022/06/15 05:20:40;;;;;;;10.85;3.20;;;;;;;25.91;55.78;95070.06;5087892;28;20726;-78
2022/06/15 05:23:12;;;;;;;6.80;3.13;;;;;;;26.50;55.06;95068.34;5088955;28;20189;-79
2022/06/15 05:25:39;;;;;;;5.57;2.38;;;;;;;27.15;53.34;95076.09;5089781;28;20572;-80
2022/06/15 05:28:08;;;;;;;6.63;2.72;;;;;;;27.90;52.15;95071.75;5089378;28;20227;-78
2022/06/15 05:30:35;;;;;;;5.53;2.30;;;;;;;28.70;50.18;95078.56;5089067;28;20182;-78
2022/06/15 05:33:02;;;;;;;4.15;2.35;;;;;;;29.52;48.50;95077.81;5089666;28;20190;-78
2022/06/15 05:35:29;;;;;;;3.92;2.30;;;;;;;30.34;46.43;95082.06;5088862;28;20859;-79
2022/06/15 05:37:57;;;;;;;2.38;2.00;;;;;;;31.14;44.36;95085.53;5089163;28;20178;-78
2022/06/15 05:40:25;;;;;;;1.80;1.70;;;;;;;31.95;42.79;95086.88;5089041;28;20267;-80
2022/06/15 05:42:52;;;;;;;4.63;1.98;;;;;;;32.73;41.34;95089.34;5089270;28;20276;-78
2022/06/15 05:45:20;;;;;;;2.38;1.73;;;;;;;33.48;39.51;95091.28;5088794;28;20228;-78
2022/06/15 05:47:47;;;;;;;4.20;1.90;;;;;;;34.20;38.21;95092.50;5088625;28;20698;-77
2022/06/15 05:50:14;;;;;;;4.35;2.08;;;;;;;34.90;37.05;95090.31;5088865;28;20193;-80
2022/06/15 05:52:41;;;;;;;2.80;1.90;;;;;;;35.53;35.86;95086.72;5089394;28;20190;-78
2022/06/15 05:55:09;;;;;;;4.18;1.67;;;;;;;36.21;34.69;95095.41;5088988;28;20232;-78
2022/06/15 05:57:37;;;;;;;3.30;1.85;;;;;;;36.85;33.74;95096.50;5088878;28;20200;-79
2022/06/15 06:00:06;;;;;;;5.45;1.90;;;;;;;37.44;32.85;95104.78;5088460;28;20194;-79
2022/06/15 06:02:32;;;;;;;1.80;1.65;;;;;;;37.99;31.95;95102.84;5089037;28;20181;-80
2022/06/15 06:04:59;;;;;;;4.47;2.10;;;;;;;38.53;31.15;95105.63;5088991;28;20190;-78
2022/06/15 06:07:26;;;;;;;4.97;2.50;;;;;;;39.03;30.68;95106.22;5086434;28;20194;-78
2022/06/15 06:09:53;;;;;;;3.83;1.77;;;;;;;39.51;29.72;95105.50;5095960;28;20194;-86
2022/06/15 06:12:20;;;;;;;2.17;1.77;;;;;;;39.98;29.25;95108.41;5095131;28;20193;-84
2022/06/15 06:14:50;;;;;;;4.00;2.13;;;;;;;40.45;28.72;95107.81;5094233;28;20774;-82
2022/06/15 06:17:17;;;;;;;3.47;1.83;;;;;;;40.87;27.92;95109.63;5093167;28;20683;-80
2022/06/15 06:19:44;;;;;;;7.38;2.05;;;;;;;41.24;27.55;95112.69;5093018;28;20185;-79
2022/06/15 06:22:11;;;;;;;2.00;1.80;;;;;;;41.61;26.61;95118.38;5087545;28;20186;-80
2022/06/15 06:24:38;;;;;;;2.63;1.92;;;;;;;41.93;26.38;95118.81;5093057;28;20189;-81
2022/06/15 06:27:06;;;;;;;2.05;1.85;;;;;;;42.27;26.16;95123.16;5091699;28;20791;-79
2022/06/15 06:29:34;;;;;;;1.77;1.67;;;;;;;42.58;25.95;95114.69;5092613;28;20197;-80
2022/06/15 06:32:03;;;;;;;2.25;2.05;;;;;;;42.89;25.70;95111.53;5073692;28;20925;-79
2022/06/15 06:34:30;;;;;;;2.20;1.98;;;;;;;43.17;25.40;95117.09;5091324;28;20193;-83
2022/06/15 06:36:58;;;;;;;2.13;1.92;;;;;;;43.44;24.54;95122.91;5071947;28;20296;-82
2022/06/15 06:39:27;;;;;;;3.72;2.13;;;;;;;43.69;24.12;95123.72;5073086;28;20189;-83
2022/06/15 06:41:55;;;;;;;2.17;1.80;;;;;;;43.91;24.26;95120.56;5092488;28;20182;-81
2022/06/15 06:44:22;;;;;;;1.70;1.60;;;;;;;44.10;23.83;95116.50;5091917;28;20198;-80
2022/06/15 06:46:51;;;;;;;2.85;1.80;;;;;;;44.30;23.84;95119.03;5091127;28;20192;-83
2022/06/15 06:49:20;;;;;;;3.38;1.83;;;;;;;44.46;23.47;95110.19;5092681;28;20200;-81
2022/06/15 06:51:48;;;;;;;2.38;1.73;;;;;;;44.66;23.34;95113.84;5090009;28;20181;-79
2022/06/15 06:54:17;;;;;;;2.70;1.58;;;;;;;44.81;23.04;95111.16;5094519;28;20201;-82
2022/06/15 06:56:44;;;;;;;2.95;1.58;;;;;;;44.96;22.41;95111.53;5093240;28;20607;-83
2022/06/15 06:59:14;;;;;;;1.65;1.55;;;;;;;45.11;22.57;95118.09;5092330;28;20189;-84
2022/06/15 07:01:44;;;;;;;2.45;1.50;;;;;;;44.98;22.56;95083.03;5084001;28;20655;-84
2022/06/15 07:04:13;;;;;;;1.83;1.60;;;;;;;45.35;22.13;95117.91;5091516;28;20644;-84
2022/06/15 07:06:41;;;;;;;2.00;1.50;;;;;;;45.48;21.82;95124.81;5090733;28;20189;-83
2022/06/15 07:09:09;;;;;;;2.78;1.77;;;;;;;45.59;22.22;95124.25;5092812;28;20193;-82
2022/06/15 07:11:36;;;;;;;3.65;1.90;;;;;;;45.69;21.88;95121.81;5093968;28;20268;-83
2022/06/15 07:14:03;;;;;;;3.22;2.03;;;;;;;45.78;21.75;95121.63;5093099;28;20193;-81
2022/06/15 07:16:30;;;;;;;2.25;2.05;;;;;;;45.84;22.05;95122.91;5092022;28;20599;-83
2022/06/15 07:18:57;;;;;;;1.95;1.60;;;;;;;45.87;21.96;95108.72;5090464;28;20200;-85
2022/06/15 07:21:26;;;;;;;1.83;1.73;;;;;;;45.96;21.87;95119.31;5089417;28;20208;-84
2022/06/15 07:23:57;;;;;;;2.28;1.73;;;;;;;45.99;21.48;95119.41;5091516;28;20574;-81
2022/06/15 07:26:31;;;;;;;3.47;1.67;;;;;;;46.04;21.35;95124.53;5090413;28;20263;-82
2022/06/15 07:28:58;;;;;;;4.82;1.90;;;;;;;46.09;21.27;95123.47;5092126;28;20195;-81
2022/06/15 07:31:31;;;;;;;2.30;1.83;;;;;;;46.13;21.47;95126.25;5091631;28;20189;-82
2022/06/15 07:33:58;;;;;;;3.63;1.95;;;;;;;46.00;21.27;95093.91;5088516;28;20193;-82
2022/06/15 07:36:28;;;;;;;4.45;2.00;;;;;;;46.17;21.31;95129.81;5091509;28;20238;-81
2022/06/15 07:38:58;;;;;;;1.65;1.55;;;;;;;46.17;21.00;95127.09;5090818;28;20185;-82
2022/06/15 07:41:27;;;;;;;3.25;1.60;;;;;;;46.16;21.01;95123.63;5091615;28;20189;-83
2022/06/15 07:43:54;;;;;;;4.40;1.77;;;;;;;46.15;21.11;95123.94;5091539;28;20197;-83
2022/06/15 07:46:21;;;;;;;3.65;1.90;;;;;;;46.11;21.11;95128.50;5091525;28;20193;-83
2022/06/15 07:51:36;;;;;;;1.80;1.70;;;;;;;45.96;20.66;95122.03;5091702;28;20266;-81
2022/06/15 07:54:10;;;;;;;2.60;1.67;;;;;;;45.88;20.87;95128.41;5091791;28;20276;-82
2022/06/15 07:56:39;;;;;;;2.17;1.80;;;;;;;45.39;21.29;95058.56;5090918;28;20270;-81
2022/06/15 07:59:06;;;;;;;2.88;1.90;;;;;;;45.80;21.28;95124.75;5091055;28;20181;-80
2022/06/15 08:01:33;;;;;;;3.20;1.80;;;;;;;45.69;21.15;95121.03;5088780;28;20588;-81
2022/06/15 08:04:01;;;;;;;3.42;1.83;;;;;;;45.65;20.77;95117.47;5090780;28;20702;-81
2022/06/15 08:06:29;;;;;;;3.65;1.80;;;;;;;45.55;20.94;95122.25;5087900;28;20201;-83
2022/06/15 08:08:55;;;;;;;2.50;2.00;;;;;;;45.46;20.79;95121.66;5096576;28;20191;-82
2022/06/15 08:11:24;;;;;;;2.00;1.80;;;;;;;45.36;21.24;95118.69;5096545;28;20188;-82
2022/06/15 08:13:51;;;;;;;7.72;2.20;;;;;;;45.26;20.80;95118.09;5091910;28;20193;-82
2022/06/15 08:16:20;;;;;;;3.35;1.77;;;;;;;45.17;21.19;95120.19;5092047;28;20217;-82
2022/06/15 08:18:52;;;;;;;2.28;2.08;;;;;;;45.03;20.88;95126.00;5093149;28;20189;-79
2022/06/15 08:21:23;;;;;;;1.88;1.70;;;;;;;44.89;20.65;95122.91;5090191;28;20204;-82
2022/06/15 08:23:53;;;;;;;2.63;1.80;;;;;;;44.78;20.78;95129.97;5090500;28;20181;-81
2022/06/15 08:26:25;;;;;;;6.90;2.05;;;;;;;44.65;21.21;95128.44;5092086;28;20595;-82
2022/06/15 08:28:55;;;;;;;1.80;1.70;;;;;;;44.48;20.88;95127.63;5091721;28;20197;-82
2022/06/15 08:31:23;;;;;;;1.80;1.70;;;;;;;44.38;21.16;95130.00;5092731;28;20278;-79
2022/06/15 08:33:50;;;;;;;2.53;1.83;;;;;;;44.21;21.12;95120.25;5090436;28;20642;-84
2022/06/15 08:36:17;;;;;;;2.42;1.80;;;;;;;44.08;21.61;95128.38;5091594;28;20602;-80
2022/06/15 08:38:44;;;;;;;2.00;1.60;;;;;;;43.94;21.48;95122.59;5093229;28;20706;-82
2022/06/15 08:41:21;;;;;;;2.88;2.00;;;;;;;43.80;21.34;95130.22;5092804;28;20192;-84
2022/06/15 08:44:01;;;;;;;1.60;1.50;;;;;;;43.59;21.45;95119.59;5090433;28;20258;-83
2022/06/15 08:46:39;;;;;;;3.08;1.70;;;;;;;43.44;21.50;95128.31;5088304;28;20188;-84
2022/06/15 08:49:16;;;;;;;2.97;2.03;;;;;;;43.25;21.44;95126.19;5088401;28;20185;-83
2022/06/15 08:51:45;;;;;;;2.53;1.90;;;;;;;43.07;21.73;95123.69;5089774;28;20189;-79
2022/06/15 08:54:28;;;;;;;1.50;1.40;;;;;;;42.90;21.68;95123.09;5088869;28;20196;-84
2022/06/15 08:57:03;;;;;;;3.33;1.80;;;;;;;42.67;22.24;95134.25;5090416;28;20208;-82
2022/06/15 08:59:39;;;;;;;1.58;1.42;;;;;;;42.47;22.18;95130.44;5087708;28;20200;-77
2022/06/15 09:02:13;;;;;;;1.60;1.50;;;;;;;42.30;21.49;95127.91;5090409;28;20184;-85
2022/06/15 09:04:51;;;;;;;2.15;1.67;;;;;;;42.11;22.12;95120.28;5088148;28;20189;-85
2022/06/15 09:07:40;;;;;;;2.10;1.63;;;;;;;41.89;22.00;95123.31;5084644;28;20188;-84
2022/06/15 09:10:22;;;;;;;2.50;1.75;;;;;;;41.65;22.23;95124.66;5088900;28;20626;-81
2022/06/15 09:13:01;;;;;;;1.40;1.30;;;;;;;41.44;22.04;95115.78;5089347;28;20178;-78
2022/06/15 09:15:43;;;;;;;2.35;1.60;;;;;;;41.19;22.11;95118.22;5091630;28;20200;-84
2022/06/15 09:18:15;;;;;;;3.42;1.45;;;;;;;40.93;22.10;95106.78;5086708;28;20777;-79
2022/06/15 09:20:47;;;;;;;3.72;1.63;;;;;;;40.80;22.15;95113.91;5089994;28;20290;-79
2022/06/15 09:23:22;;;;;;;1.63;1.52;;;;;;;40.56;22.47;95104.50;5089250;28;20281;-82
2022/06/15 09:25:54;;;;;;;1.85;1.65;;;;;;;40.42;22.73;95114.59;5087448;28;20192;-85
2022/06/15 09:28:27;;;;;;;2.22;1.63;;;;;;;40.26;23.04;95130.38;5092956;28;20196;-83
2022/06/15 09:31:02;;;;;;;3.92;1.70;;;;;;;40.02;22.86;95128.13;5089902;28;20188;-84
2022/06/15 09:33:35;;;;;;;2.90;1.63;;;;;;;39.82;22.86;95132.22;5085829;28;20196;-83
2022/06/15 09:36:09;;;;;;;2.33;1.75;;;;;;;39.58;22.94;95118.41;5087833;28;20205;-81
2022/06/15 09:38:38;;;;;;;4.63;1.60;;;;;;;39.43;23.07;95125.00;5088323;28;20213;-83
2022/06/15 09:41:15;;;;;;;3.15;1.75;;;;;;;39.24;23.34;95125.25;5087831;28;20728;-79
2022/06/15 09:44:03;;;;;;;1.95;1.85;;;;;;;39.04;23.97;95123.09;5088604;28;20239;-80
2022/06/15 09:46:41;;;;;;;3.72;1.67;;;;;;;38.82;23.91;95113.22;5084664;28;20200;-80
2022/06/15 09:49:22;;;;;;;1.85;1.58;;;;;;;38.65;24.27;95117.34;5085784;28;20196;-79
2022/06/15 09:52:00;;;;;;;3.22;1.73;;;;;;;38.45;24.26;95109.81;5090272;28;20197;-89
2022/06/15 09:54:38;;;;;;;2.10;1.80;;;;;;;38.25;24.32;95110.28;5089843;28;20185;-80
2022/06/15 09:57:05;;;;;;;2.20;1.77;;;;;;;38.06;24.28;95110.44;5087969;28;20327;-78
2022/06/15 09:59:33;;;;;;;1.83;1.63;;;;;;;37.89;24.51;95101.19;5083980;28;20204;-82
2022/06/15 10:02:04;;;;;;;2.58;2.13;;;;;;;37.72;24.54;95103.66;5086720;28;20184;-82
2022/06/15 10:04:34;;;;;;;2.45;1.60;;;;;;;37.54;24.88;95105.38;5084396;28;20186;-78
2022/06/15 10:07:05;;;;;;;3.28;1.67;;;;;;;37.36;25.02;95109.72;5086575;28;20197;-79
2022/06/15 10:09:37;;;;;;;2.30;1.73;;;;;;;37.14;25.17;95098.94;5086019;28;20193;-81
2022/06/15 10:15:16;;;;;;;1.70;1.60;;;;;;;36.78;25.63;95093.44;5082731;28;20322;-77
2022/06/15 10:17:48;;;;;;;3.65;1.67;;;;;;;36.67;25.76;95104.28;5085859;28;20252;-77
2022/06/15 10:20:22;;;;;;;4.85;1.95;;;;;;;36.53;25.79;95103.47;5086346;28;20197;-77
2022/06/15 10:22:54;;;;;;;2.25;2.00;;;;;;;36.38;25.75;95090.34;5085892;28;20205;-76
2022/06/15 10:25:23;;;;;;;2.65;1.70;;;;;;;36.23;26.12;95087.91;5086019;28;20653;-78
2022/06/15 10:27:51;;;;;;;2.40;1.90;;;;;;;36.12;26.21;95095.28;5086352;28;20190;-78
2022/06/15 10:30:22;;;;;;;1.75;1.65;;;;;;;35.96;26.07;95093.88;5086498;28;20284;-81
2022/06/15 10:33:02;;;;;;;2.83;1.80;;;;;;;35.83;26.48;95092.72;5084726;28;20182;-80
2022/06/15 10:35:31;;;;;;;2.10;1.95;;;;;;;35.69;26.47;95089.97;5086034;28;20211;-80
2022/06/15 10:38:01;;;;;;;3.42;1.60;;;;;;;35.56;26.72;95080.84;5086079;28;20595;-80
2022/06/15 10:40:31;;;;;;;1.70;1.60;;;;;;;35.46;26.82;95085.47;5086878;28;20229;-82
2022/06/15 10:43:04;;;;;;;2.40;2.20;;;;;;;35.36;26.94;95094.34;5084385;28;20263;-79
2022/06/15 10:45:35;;;;;;;4.25;1.85;;;;;;;35.26;26.95;95089.16;5084434;28;20583;-80
2022/06/15 10:48:08;;;;;;;2.80;2.00;;;;;;;35.16;27.25;95090.88;5086896;28;20676;-79
2022/06/15 10:50:44;;;;;;;4.50;1.92;;;;;;;35.08;27.28;95082.72;5086127;28;20605;-78
2022/06/15 10:53:28;;;;;;;2.72;1.88;;;;;;;34.90;27.52;95069.06;5084317;28;20192;-79
2022/06/15 11:04:28;;;;;;;4.00;2.08;;;;;;;34.69;27.68;95070.31;5090293;28;20590;-81
2022/06/15 11:07:03;;;;;;;1.75;1.65;;;;;;;34.64;27.49;95063.19;5087757;28;20577;-81
2022/06/15 11:09:33;;;;;;;2.10;1.90;;;;;;;34.63;27.67;95064.28;5089397;28;20336;-79
2022/06/15 11:12:05;;;;;;;3.25;1.98;;;;;;;34.59;28.00;95065.91;5084486;28;20828;-81
2022/06/15 11:14:43;;;;;;;2.80;1.80;;;;;;;34.45;28.02;95052.44;5086864;28;20740;-84
2022/06/15 11:20:22;;;;;;;2.05;1.85;;;;;;;34.35;28.20;95052.53;5086054;28;20173;-75
2022/06/15 11:22:53;;;;;;;6.13;2.10;;;;;;;34.36;28.27;95063.94;5085952;28;20208;-77
2022/06/15 11:25:26;;;;;;;3.58;2.10;;;;;;;34.30;28.23;95067.72;5092120;28;20204;-80
2022/06/15 11:28:00;;;;;;;2.00;1.67;;;;;;;34.23;28.51;95059.28;5089812;28;20190;-75
2022/06/15 11:30:31;;;;;;;2.03;1.70;;;;;;;34.08;28.49;95044.25;5090505;28;20723;-80
2022/06/15 11:33:02;;;;;;;1.70;1.60;;;;;;;34.12;28.50;95061.22;5091651;28;20687;-85
2022/06/15 11:35:37;;;;;;;2.20;2.00;;;;;;;34.07;28.49;95056.75;5091363;28;20190;-83
2022/06/15 11:38:16;;;;;;;3.15;1.92;;;;;;;34.02;28.90;95045.34;5090274;28;20225;-85
2022/06/15 11:40:48;;;;;;;2.80;2.00;;;;;;;33.85;28.97;95027.94;5092273;28;20185;-82
2022/06/15 11:43:18;;;;;;;1.85;1.75;;;;;;;33.91;28.61;95047.28;5090552;28;20193;-85
2022/06/15 11:45:56;;;;;;;3.83;1.70;;;;;;;33.83;28.86;95051.28;5091049;28;20190;-84
2022/06/15 11:48:37;;;;;;;1.92;1.73;;;;;;;33.69;28.90;95045.03;5089407;28;20201;-84
2022/06/15 11:51:22;;;;;;;2.42;2.28;;;;;;;33.58;29.29;95035.53;5090528;28;20221;-83
2022/06/15 11:54:03;;;;;;;1.90;1.80;;;;;;;33.58;29.29;95052.22;5090527;28;20291;-83
2022/06/15 11:56:37;;;;;;;2.15;1.92;;;;;;;33.50;29.27;95031.59;5092536;28;20186;-83
2022/06/15 11:59:13;;;;;;;2.15;1.95;;;;;;;33.39;29.37;95032.69;5087670;28;20214;-86
2022/06/15 12:01:48;;;;;;;2.67;1.95;;;;;;;33.32;29.60;95024.22;5089450;28;20280;-81
2022/06/15 12:04:41;;;;;;;4.00;2.40;;;;;;;33.33;29.31;95041.72;5085540;28;20223;-84
2022/06/15 12:07:23;;;;;;;5.25;1.98;;;;;;;33.30;29.70;95031.69;5026272;28;20258;-83
2022/06/15 12:10:03;;;;;;;3.30;2.20;;;;;;;33.25;29.54;95036.97;5029135;28;20290;-83
2022/06/15 12:12:40;;;;;;;1.85;1.73;;;;;;;33.14;29.67;95017.69;5028217;28;20191;-82